Lapeer, Michigan
Current Conditions -  °F | °C
As of 3:13 PM on Thursday 29 Jan 2015 (Local Time) from KD95 Reporting Station
Moderate Snow Moderate Snow  
Wind Chill: 23°   Ceiling: 700
Heat Index: 29°   Visibility: 0.5mi
Dew Point: 28°   Wind: 7mph
Humidity: 92%   Direction: 320°NW
Pressure: 29.74"   Gusts: NA
Location:  43.05°N, 83.31°W
Report Text: KD95 292013Z AUTO 32006KT 1/2SM SN OVC007 M01/M02 A2974 RMK AO2 T10141025
Loading
Personal Weather Stations






























Interactive Weather Map New forecast layout! Learn more

10-Day Weather Forecast

Advertisements
Track Severe Weather on mobile